^^
Your Local Weather - Clay, NY Station Historical Data
Daily Summary for January 16, 2018 Units:  English    Metric   Both
« Previous Day
Next Day »
Daily Weekly Monthly Yearly Custom
  High: Low: Average:
Temperature: 27.8 °F 15.5 °F 21.4 °F
Dew Point: 25.8 °F 13.1 °F 19.4 °F
Humidity: 93% 90% 92%
Wind Speed: 3.0mph 0.0mph 0.7mph
Wind Gust: 5.0mph - -
Wind- - SE
Pressure: 30.41 in 30.34 in -
Precipitation: 0.00 in    
Historical Graphs
 
 
Tabular Data for January 16, 2018
Time Temperature Dew Point Pressure Wind Wind Speed Wind Gust Humidity Rainfall Rate (Hourly) solar
00:04 16.6 °F 14.2 °F 30.40 in ENE 2.0 mph 4.0 mph 90% 0.00 in 0 W/m2
00:12 16.6 °F 14.2 °F 30.39 in ENE 2.0 mph 2.0 mph 90% 0.00 in 0 W/m2
00:22 16.6 °F 14.2 °F 30.39 in ESE 1.0 mph 1.0 mph 90% 0.00 in 0 W/m2
00:28 16.6 °F 14.2 °F 30.38 in ENE 2.0 mph 4.0 mph 90% 0.00 in 0 W/m2
00:34 16.6 °F 14.2 °F 30.38 in ENE 3.0 mph 3.0 mph 90% 0.00 in 0 W/m2
00:40 16.6 °F 14.2 °F 30.38 in SE 2.0 mph 2.0 mph 90% 0.00 in 0 W/m2
00:48 16.6 °F 14.2 °F 30.38 in ENE 2.0 mph 2.0 mph 90% 0.00 in 0 W/m2
00:54 16.6 °F 14.2 °F 30.38 in East 3.0 mph 5.0 mph 90% 0.00 in 0 W/m2
01:00 16.6 °F 14.2 °F 30.37 in East 3.0 mph 3.0 mph 90% 0.00 in 0 W/m2
01:10 16.6 °F 14.2 °F 30.37 in East 1.0 mph 3.0 mph 90% 0.00 in 0 W/m2
01:16 16.6 °F 14.2 °F 30.37 in ENE 2.0 mph 3.0 mph 90% 0.00 in 0 W/m2
01:28 16.6 °F 14.2 °F 30.37 in ENE 2.0 mph 3.0 mph 90% 0.00 in 0 W/m2
01:38 16.5 °F 14.1 °F 30.36 in East 3.0 mph 5.0 mph 90% 0.00 in 0 W/m2
01:50 16.5 °F 14.1 °F 30.37 in ENE 3.0 mph 3.0 mph 90% 0.00 in 0 W/m2
01:56 16.4 °F 14.0 °F 30.37 in ENE 3.0 mph 4.0 mph 90% 0.00 in 0 W/m2
02:02 16.4 °F 14.0 °F 30.37 in East 3.0 mph 3.0 mph 90% 0.00 in 0 W/m2
02:08 16.4 °F 14.0 °F 30.37 in East 3.0 mph 5.0 mph 90% 0.00 in 0 W/m2
02:14 16.4 °F 14.0 °F 30.36 in ENE 3.0 mph 5.0 mph 90% 0.00 in 0 W/m2
02:22 16.4 °F 14.0 °F 30.37 in ENE 3.0 mph 3.0 mph 90% 0.00 in 0 W/m2
02:30 16.4 °F 14.0 °F 30.37 in ENE 2.0 mph 2.0 mph 90% 0.00 in 0 W/m2
02:38 16.4 °F 14.0 °F 30.37 in East 2.0 mph 2.0 mph 90% 0.00 in 0 W/m2
02:44 16.3 °F 13.9 °F 30.37 in East 1.0 mph 2.0 mph 90% 0.00 in 0 W/m2
02:52 16.3 °F 13.9 °F 30.37 in NE 1.0 mph 2.0 mph 90% 0.00 in 0 W/m2
02:58 16.2 °F 13.8 °F 30.37 in NE 1.0 mph 1.0 mph 90% 0.00 in 0 W/m2
03:04 16.2 °F 13.8 °F 30.37 in East 1.0 mph 5.0 mph 90% 0.00 in 0 W/m2
03:14 16.2 °F 13.8 °F 30.37 in East 1.0 mph 2.0 mph 90% 0.00 in 0 W/m2
03:20 16.1 °F 13.7 °F 30.37 in ENE 1.0 mph 1.0 mph 90% 0.00 in 0 W/m2
03:26 16.1 °F 13.7 °F 30.37 in East 2.0 mph 5.0 mph 90% 0.00 in 0 W/m2
03:32 16.1 °F 13.7 °F 30.37 in ENE 2.0 mph 3.0 mph 90% 0.00 in 0 W/m2
03:42 16.2 °F 13.8 °F 30.37 in East 1.0 mph 1.0 mph 90% 0.00 in 0 W/m2
03:48 16.2 °F 14.0 °F 30.37 in ENE 1.0 mph 1.0 mph 91% 0.00 in 0 W/m2
03:54 16.2 °F 14.0 °F 30.37 in ENE 1.0 mph 2.0 mph 91% 0.00 in 0 W/m2
04:00 16.3 °F 14.1 °F 30.37 in ENE 1.0 mph 1.0 mph 91% 0.00 in 0 W/m2
04:06 16.3 °F 14.1 °F 30.37 in ENE 1.0 mph 2.0 mph 91% 0.00 in 0 W/m2
04:12 16.3 °F 14.1 °F 30.37 in ENE 1.0 mph 1.0 mph 91% 0.00 in 0 W/m2
04:18 16.3 °F 14.1 °F 30.37 in ENE 1.0 mph 1.0 mph 91% 0.00 in 0 W/m2
04:24 16.3 °F 14.1 °F 30.37 in East 1.0 mph 1.0 mph 91% 0.00 in 0 W/m2
04:30 16.3 °F 14.1 °F 30.37 in East 2.0 mph 2.0 mph 91% 0.00 in 0 W/m2
04:36 16.3 °F 13.9 °F 30.37 in East 1.0 mph 2.0 mph 90% 0.00 in 0 W/m2
04:42 16.2 °F 13.8 °F 30.37 in East 1.0 mph 1.0 mph 90% 0.00 in 0 W/m2
04:48 16.1 °F 13.7 °F 30.37 in East 1.0 mph 2.0 mph 90% 0.00 in 0 W/m2
04:54 16.1 °F 13.7 °F 30.37 in East 1.0 mph 1.0 mph 90% 0.00 in 0 W/m2
05:00 16.0 °F 13.6 °F 30.37 in Calm     90% 0.00 in 0 W/m2
05:06 15.9 °F 13.5 °F 30.37 in Calm     90% 0.00 in 0 W/m2
05:12 15.7 °F 13.3 °F 30.37 in Calm     90% 0.00 in 0 W/m2
05:18 15.6 °F 13.2 °F 30.37 in Calm   2.0 mph 90% 0.00 in 0 W/m2
05:24 15.5 °F 13.1 °F 30.37 in East 1.0 mph 1.0 mph 90% 0.00 in 0 W/m2
05:34 15.5 °F 13.1 °F 30.37 in ENE 1.0 mph 3.0 mph 90% 0.00 in 0 W/m2
05:40 15.5 °F 13.1 °F 30.37 in ENE 2.0 mph 2.0 mph 90% 0.00 in 0 W/m2
05:46 15.5 °F 13.1 °F 30.37 in ENE 1.0 mph 2.0 mph 90% 0.00 in 0 W/m2
05:52 15.6 °F 13.2 °F 30.37 in ENE 1.0 mph 1.0 mph 90% 0.00 in 0 W/m2
05:58 15.6 °F 13.2 °F 30.37 in Calm   1.0 mph 90% 0.00 in 0 W/m2
06:04 15.7 °F 13.3 °F 30.37 in ENE 1.0 mph 1.0 mph 90% 0.00 in 0 W/m2
06:10 15.8 °F 13.4 °F 30.38 in ENE 1.0 mph 1.0 mph 90% 0.00 in 0 W/m2
06:18 15.9 °F 13.5 °F 30.38 in Calm   2.0 mph 90% 0.00 in 0 W/m2
06:24 16.0 °F 13.6 °F 30.38 in ENE 1.0 mph 2.0 mph 90% 0.00 in 0 W/m2
06:30 16.1 °F 13.7 °F 30.37 in ENE 1.0 mph 1.0 mph 90% 0.00 in 0 W/m2
06:36 16.2 °F 13.8 °F 30.38 in ENE 1.0 mph 1.0 mph 90% 0.00 in 0 W/m2
06:42 16.3 °F 13.9 °F 30.39 in Calm     90% 0.00 in 0 W/m2
06:48 16.4 °F 14.2 °F 30.39 in Calm   1.0 mph 91% 0.00 in 0 W/m2
06:54 16.5 °F 14.3 °F 30.39 in Calm   1.0 mph 91% 0.00 in 0 W/m2
07:00 16.6 °F 14.4 °F 30.39 in Calm   1.0 mph 91% 0.00 in 0 W/m2
07:06 16.6 °F 14.4 °F 30.39 in Calm   2.0 mph 91% 0.00 in 0 W/m2
07:12 16.8 °F 14.6 °F 30.39 in Calm     91% 0.00 in 0 W/m2
07:18 16.8 °F 14.6 °F 30.39 in Calm   2.0 mph 91% 0.00 in 0 W/m2
07:26 16.9 °F 14.7 °F 30.39 in Calm     91% 0.00 in 0 W/m2
07:32 17.0 °F 14.8 °F 30.39 in Calm     91% 0.00 in 0 W/m2
07:40 17.1 °F 14.9 °F 30.39 in Calm     91% 0.00 in 0 W/m2
07:46 17.2 °F 15.0 °F 30.39 in Calm     91% 0.00 in 0 W/m2
07:52 17.3 °F 15.1 °F 30.39 in Calm     91% 0.00 in 0 W/m2
07:58 17.3 °F 15.1 °F 30.39 in Calm   1.0 mph 91% 0.00 in 0 W/m2
08:04 17.4 °F 15.2 °F 30.39 in Calm     91% 0.00 in 0 W/m2
08:12 17.5 °F 15.3 °F 30.39 in Calm   1.0 mph 91% 0.00 in 5 W/m2
08:20 17.6 °F 15.4 °F 30.39 in ENE 1.0 mph 1.0 mph 91% 0.00 in 11 W/m2
08:26 17.7 °F 15.5 °F 30.39 in Calm   1.0 mph 91% 0.00 in 16 W/m2
08:32 17.8 °F 15.6 °F 30.40 in Calm   2.0 mph 91% 0.00 in 18 W/m2
08:38 17.9 °F 15.7 °F 30.40 in Calm   2.0 mph 91% 0.00 in 19 W/m2
08:44 18.1 °F 15.9 °F 30.40 in Calm   2.0 mph 91% 0.00 in 26 W/m2
08:52 18.3 °F 16.1 °F 30.39 in Calm   1.0 mph 91% 0.00 in 35 W/m2
08:58 18.4 °F 16.2 °F 30.40 in Calm   2.0 mph 91% 0.00 in 47 W/m2
09:06 18.6 °F 16.4 °F 30.40 in ESE 1.0 mph 2.0 mph 91% 0.00 in 54 W/m2
09:12 18.9 °F 16.7 °F 30.40 in ESE 1.0 mph 2.0 mph 91% 0.00 in 51 W/m2
09:18 19.1 °F 16.9 °F 30.40 in ESE 1.0 mph 2.0 mph 91% 0.00 in 39 W/m2
09:26 19.2 °F 17.0 °F 30.40 in Calm   1.0 mph 91% 0.00 in 40 W/m2
09:32 19.4 °F 17.2 °F 30.41 in Calm     91% 0.00 in 33 W/m2
09:38 19.5 °F 17.3 °F 30.41 in Calm   2.0 mph 91% 0.00 in 37 W/m2
09:44 19.6 °F 17.4 °F 30.41 in Calm   2.0 mph 91% 0.00 in 69 W/m2
09:50 19.8 °F 17.6 °F 30.41 in ESE 1.0 mph 1.0 mph 91% 0.00 in 69 W/m2
09:56 20.0 °F 17.8 °F 30.40 in ESE 1.0 mph 1.0 mph 91% 0.00 in 86 W/m2
10:02 20.2 °F 18.0 °F 30.40 in ESE 1.0 mph 1.0 mph 91% 0.00 in 67 W/m2
10:08 20.6 °F 18.4 °F 30.41 in Calm   1.0 mph 91% 0.00 in 56 W/m2
10:14 20.8 °F 18.6 °F 30.41 in ESE 1.0 mph 1.0 mph 91% 0.00 in 63 W/m2
10:20 21.0 °F 19.0 °F 30.41 in ESE 1.0 mph 1.0 mph 92% 0.00 in 77 W/m2
10:26 21.2 °F 19.2 °F 30.41 in Calm   1.0 mph 92% 0.00 in 118 W/m2
10:32 21.8 °F 19.8 °F 30.41 in Calm     92% 0.00 in 158 W/m2
10:38 22.5 °F 20.5 °F 30.41 in Calm     92% 0.00 in 81 W/m2
10:44 22.9 °F 20.9 °F 30.41 in Calm     92% 0.00 in 77 W/m2
10:52 23.0 °F 21.0 °F 30.40 in Calm     92% 0.00 in 95 W/m2
10:58 23.2 °F 21.2 °F 30.41 in Calm     92% 0.00 in 84 W/m2
11:06 23.4 °F 21.4 °F 30.40 in Calm     92% 0.00 in 58 W/m2
11:12 23.7 °F 21.7 °F 30.40 in Calm     92% 0.00 in 76 W/m2
11:24 23.9 °F 21.9 °F 30.40 in Calm   1.0 mph 92% 0.00 in 62 W/m2
11:30 24.0 °F 22.0 °F 30.40 in Calm     92% 0.00 in 104 W/m2
11:36 24.2 °F 22.2 °F 30.40 in Calm     92% 0.00 in 60 W/m2
11:42 24.5 °F 22.5 °F 30.39 in Calm   2.0 mph 92% 0.00 in 90 W/m2
11:48 24.8 °F 22.8 °F 30.39 in Calm   2.0 mph 92% 0.00 in 93 W/m2
12:02 25.4 °F 23.4 °F 30.38 in Calm     92% 0.00 in 192 W/m2
12:08 25.9 °F 23.9 °F 30.38 in Calm     92% 0.00 in 116 W/m2
12:14 26.3 °F 24.6 °F 30.38 in Calm   1.0 mph 93% 0.00 in 113 W/m2
12:22 26.7 °F 24.9 °F 30.37 in SSW 1.0 mph 1.0 mph 93% 0.00 in 128 W/m2
12:28 26.9 °F 25.1 °F 30.37 in South 1.0 mph 3.0 mph 93% 0.00 in 118 W/m2
12:34 27.1 °F 25.3 °F 30.37 in SSW 1.0 mph 1.0 mph 93% 0.00 in 116 W/m2
12:40 27.2 °F 25.4 °F 30.37 in SSW 1.0 mph 3.0 mph 93% 0.00 in 91 W/m2
12:52 27.2 °F 25.2 °F 30.37 in WSW 2.0 mph 5.0 mph 92% 0.00 in 88 W/m2
12:58 27.1 °F 25.1 °F 30.37 in WSW 3.0 mph 5.0 mph 92% 0.00 in 76 W/m2
13:04 27.1 °F 25.1 °F 30.36 in WSW 2.0 mph 3.0 mph 92% 0.00 in 90 W/m2
13:12 27.1 °F 25.1 °F 30.36 in SW 2.0 mph 4.0 mph 92% 0.00 in 72 W/m2
13:18 27.1 °F 25.1 °F 30.36 in SW 3.0 mph 4.0 mph 92% 0.00 in 95 W/m2
13:24 27.2 °F 25.2 °F 30.36 in SW 2.0 mph 2.0 mph 92% 0.00 in 121 W/m2
13:30 27.3 °F 25.3 °F 30.36 in SW 1.0 mph 4.0 mph 92% 0.00 in 102 W/m2
13:36 27.5 °F 25.5 °F 30.36 in SW 1.0 mph 4.0 mph 92% 0.00 in 105 W/m2
13:42 27.6 °F 25.6 °F 30.36 in SW 1.0 mph 2.0 mph 92% 0.00 in 120 W/m2
13:50 27.6 °F 25.3 °F 30.35 in SW 2.0 mph 2.0 mph 91% 0.00 in 104 W/m2
14:02 27.7 °F 25.7 °F 30.36 in WSW 2.0 mph 3.0 mph 92% 0.00 in 98 W/m2
14:08 27.8 °F 25.8 °F 30.36 in WSW 2.0 mph 3.0 mph 92% 0.00 in 88 W/m2
14:14 27.7 °F 25.7 °F 30.36 in WSW 1.0 mph 2.0 mph 92% 0.00 in 88 W/m2
14:20 27.7 °F 25.4 °F 30.36 in Calm     91% 0.00 in 72 W/m2
14:26 27.6 °F 25.3 °F 30.36 in WSW 1.0 mph 3.0 mph 91% 0.00 in 72 W/m2
15:36 27.2 °F 24.9 °F 30.36 in WSW 1.0 mph 2.0 mph 91% 0.00 in 37 W/m2
15:42 27.1 °F 24.8 °F 30.37 in WSW 1.0 mph 3.0 mph 91% 0.00 in 30 W/m2
15:48 26.9 °F 24.6 °F 30.37 in WSW 2.0 mph 4.0 mph 91% 0.00 in 32 W/m2
15:53 26.8 °F 24.8 °F 30.37 in WSW 1.0 mph 4.0 mph 92% 0.00 in 25 W/m2
16:00 26.7 °F 24.7 °F 30.38 in WSW 1.0 mph 1.0 mph 92% 0.00 in 21 W/m2
16:06 26.5 °F 24.5 °F 30.38 in WSW 1.0 mph 2.0 mph 92% 0.00 in 18 W/m2
16:12 26.4 °F 24.4 °F 30.38 in WSW 1.0 mph 1.0 mph 92% 0.00 in 25 W/m2
16:18 26.4 °F 24.4 °F 30.37 in Calm   1.0 mph 92% 0.00 in 18 W/m2
16:23 26.4 °F 24.4 °F 30.38 in Calm     92% 0.00 in 12 W/m2
16:30 26.3 °F 24.3 °F 30.38 in Calm     92% 0.00 in 9 W/m2
16:36 26.3 °F 24.3 °F 30.38 in Calm     92% 0.00 in 7 W/m2
16:42 26.2 °F 24.5 °F 30.38 in Calm   2.0 mph 93% 0.00 in 5 W/m2
16:48 26.1 °F 24.4 °F 30.38 in Calm   2.0 mph 93% 0.00 in 0 W/m2
16:54 26.1 °F 24.4 °F 30.38 in Calm     93% 0.00 in 0 W/m2
17:00 26.0 °F 24.3 °F 30.37 in Calm   2.0 mph 93% 0.00 in 0 W/m2
17:06 26.0 °F 24.3 °F 30.37 in WSW 1.0 mph 2.0 mph 93% 0.00 in 0 W/m2
17:12 25.9 °F 24.2 °F 30.37 in Calm   1.0 mph 93% 0.00 in 0 W/m2
17:18 25.9 °F 24.2 °F 30.38 in Calm   1.0 mph 93% 0.00 in 0 W/m2
17:24 25.8 °F 24.1 °F 30.37 in Calm     93% 0.00 in 0 W/m2
17:30 25.8 °F 24.1 °F 30.37 in Calm     93% 0.00 in 0 W/m2
17:38 25.7 °F 24.0 °F 30.38 in Calm     93% 0.00 in 0 W/m2
17:44 25.6 °F 23.9 °F 30.38 in Calm     93% 0.00 in 0 W/m2
17:49 25.5 °F 23.8 °F 30.38 in Calm     93% 0.00 in 0 W/m2
17:56 25.5 °F 23.8 °F 30.38 in Calm     93% 0.00 in 0 W/m2
18:02 25.5 °F 23.8 °F 30.38 in Calm     93% 0.00 in 0 W/m2
18:08 25.4 °F 23.7 °F 30.38 in Calm     93% 0.00 in 0 W/m2
18:20 25.3 °F 23.6 °F 30.38 in Calm     93% 0.00 in 0 W/m2
18:26 25.3 °F 23.6 °F 30.38 in Calm     93% 0.00 in 0 W/m2
18:32 25.2 °F 23.5 °F 30.38 in Calm     93% 0.00 in 0 W/m2
18:38 25.2 °F 23.5 °F 30.38 in Calm     93% 0.00 in 0 W/m2
18:43 25.2 °F 23.5 °F 30.38 in Calm     93% 0.00 in 0 W/m2
18:50 25.1 °F 23.4 °F 30.38 in Calm     93% 0.00 in 0 W/m2
18:55 25.1 °F 23.4 °F 30.38 in Calm     93% 0.00 in 0 W/m2
19:02 25.1 °F 23.4 °F 30.38 in Calm     93% 0.00 in 0 W/m2
19:08 25.1 °F 23.4 °F 30.38 in Calm     93% 0.00 in 0 W/m2
19:13 25.0 °F 23.3 °F 30.38 in Calm     93% 0.00 in 0 W/m2
19:26 25.0 °F 23.3 °F 30.38 in Calm     93% 0.00 in 0 W/m2
19:32 24.9 °F 23.2 °F 30.38 in Calm     93% 0.00 in 0 W/m2
19:42 24.9 °F 23.2 °F 30.38 in Calm     93% 0.00 in 0 W/m2
19:48 24.9 °F 23.2 °F 30.38 in Calm     93% 0.00 in 0 W/m2
19:53 24.8 °F 23.1 °F 30.38 in Calm     93% 0.00 in 0 W/m2
19:59 24.8 °F 23.1 °F 30.38 in Calm     93% 0.00 in 0 W/m2
20:06 24.7 °F 23.0 °F 30.38 in Calm     93% 0.00 in 0 W/m2
20:12 24.7 °F 23.0 °F 30.38 in Calm     93% 0.00 in 0 W/m2
20:19 24.7 °F 23.0 °F 30.38 in Calm     93% 0.00 in 0 W/m2
20:33 24.5 °F 22.8 °F 30.38 in Calm     93% 0.00 in 0 W/m2
20:39 24.5 °F 22.8 °F 30.38 in Calm     93% 0.00 in 0 W/m2
20:46 24.5 °F 22.8 °F 30.38 in Calm     93% 0.00 in 0 W/m2
20:52 24.5 °F 22.8 °F 30.38 in Calm     93% 0.00 in 0 W/m2
20:58 24.5 °F 22.8 °F 30.37 in Calm     93% 0.00 in 0 W/m2
21:04 24.5 °F 22.8 °F 30.38 in Calm     93% 0.00 in 0 W/m2
21:12 24.5 °F 22.8 °F 30.37 in Calm   2.0 mph 93% 0.00 in 0 W/m2
21:18 24.4 °F 22.7 °F 30.36 in WSW 1.0 mph 2.0 mph 93% 0.00 in 0 W/m2
21:23 24.3 °F 22.6 °F 30.36 in Calm   1.0 mph 93% 0.00 in 0 W/m2
21:30 24.3 °F 22.6 °F 30.36 in Calm     93% 0.00 in 0 W/m2
21:39 24.2 °F 22.5 °F 30.36 in Calm     93% 0.00 in 0 W/m2
21:46 24.2 °F 22.5 °F 30.36 in Calm     93% 0.00 in 0 W/m2
21:52 24.1 °F 22.4 °F 30.36 in Calm     93% 0.00 in 0 W/m2
21:58 24.1 °F 22.4 °F 30.36 in Calm     93% 0.00 in 0 W/m2
22:04 24.1 °F 22.4 °F 30.36 in Calm     93% 0.00 in 0 W/m2
22:09 24.1 °F 22.4 °F 30.36 in Calm     93% 0.00 in 0 W/m2
22:16 24.1 °F 22.4 °F 30.36 in Calm     93% 0.00 in 0 W/m2
22:22 24.1 °F 22.4 °F 30.36 in Calm     93% 0.00 in 0 W/m2
22:28 24.0 °F 22.3 °F 30.35 in Calm     93% 0.00 in 0 W/m2
22:33 24.0 °F 22.3 °F 30.36 in Calm     93% 0.00 in 0 W/m2
22:42 23.9 °F 22.2 °F 30.35 in Calm     93% 0.00 in 0 W/m2
22:48 23.8 °F 22.1 °F 30.35 in Calm     93% 0.00 in 0 W/m2
22:54 23.7 °F 22.0 °F 30.36 in Calm     93% 0.00 in 0 W/m2
22:59 23.6 °F 21.9 °F 30.35 in Calm     93% 0.00 in 0 W/m2
23:05 23.5 °F 21.8 °F 30.35 in Calm     93% 0.00 in 0 W/m2
23:12 23.3 °F 21.6 °F 30.35 in Calm     93% 0.00 in 0 W/m2
23:18 23.0 °F 21.3 °F 30.35 in Calm     93% 0.00 in 0 W/m2
23:28 22.7 °F 21.0 °F 30.35 in Calm     93% 0.00 in 0 W/m2
23:36 22.4 °F 20.7 °F 30.34 in Calm     93% 0.00 in 0 W/m2
23:42 22.1 °F 20.4 °F 30.34 in Calm     93% 0.00 in 0 W/m2
23:48 21.9 °F 20.2 °F 30.34 in Calm     93% 0.00 in 0 W/m2
Country Meadow, Clay, NY, USA
Compliments of Weather Underground - 2 mb